sensor_id;sensor_type;location;lat;lon;timestamp;temperature;humidity
20005;DHT22;69160;45.498;-73.582;2023-04-15T00:00:28;21.70;47.80
20005;DHT22;69160;45.498;-73.582;2023-04-15T00:02:54;21.70;47.20
20005;DHT22;69160;45.498;-73.582;2023-04-15T00:05:21;21.70;47.70
20005;DHT22;69160;45.498;-73.582;2023-04-15T00:07:47;21.70;47.60
20005;DHT22;69160;45.498;-73.582;2023-04-15T00:10:13;21.60;46.70
20005;DHT22;69160;45.498;-73.582;2023-04-15T00:12:39;21.40;46.90
20005;DHT22;69160;45.498;-73.582;2023-04-15T00:15:07;21.50;47.80
20005;DHT22;69160;45.498;-73.582;2023-04-15T00:17:34;21.60;47.60
20005;DHT22;69160;45.498;-73.582;2023-04-15T00:20:00;21.60;47.20
20005;DHT22;69160;45.498;-73.582;2023-04-15T00:22:27;21.50;47.50
20005;DHT22;69160;45.498;-73.582;2023-04-15T00:24:54;21.40;47.20
20005;DHT22;69160;45.498;-73.582;2023-04-15T00:27:21;21.40;47.40
20005;DHT22;69160;45.498;-73.582;2023-04-15T00:29:47;21.30;47.30
20005;DHT22;69160;45.498;-73.582;2023-04-15T00:32:13;21.30;47.70
20005;DHT22;69160;45.498;-73.582;2023-04-15T00:34:40;21.30;47.90
20005;DHT22;69160;45.498;-73.582;2023-04-15T00:37:06;21.20;47.90
20005;DHT22;69160;45.498;-73.582;2023-04-15T00:39:32;21.30;48.30
20005;DHT22;69160;45.498;-73.582;2023-04-15T00:41:58;21.30;48.10
20005;DHT22;69160;45.498;-73.582;2023-04-15T00:44:25;21.20;48.50
20005;DHT22;69160;45.498;-73.582;2023-04-15T00:46:52;21.20;48.50
20005;DHT22;69160;45.498;-73.582;2023-04-15T00:49:18;21.20;48.50
20005;DHT22;69160;45.498;-73.582;2023-04-15T00:51:45;21.10;48.40
20005;DHT22;69160;45.498;-73.582;2023-04-15T00:54:11;21.00;48.70
20005;DHT22;69160;45.498;-73.582;2023-04-15T00:56:38;21.10;48.60
20005;DHT22;69160;45.498;-73.582;2023-04-15T00:59:05;21.10;48.80
20005;DHT22;69160;45.498;-73.582;2023-04-15T01:01:33;21.10;48.70
20005;DHT22;69160;45.498;-73.582;2023-04-15T01:04:00;21.00;48.50
20005;DHT22;69160;45.498;-73.582;2023-04-15T01:06:27;21.00;48.90
20005;DHT22;69160;45.498;-73.582;2023-04-15T01:08:54;21.00;48.70
20005;DHT22;69160;45.498;-73.582;2023-04-15T01:11:20;20.90;48.60
20005;DHT22;69160;45.498;-73.582;2023-04-15T01:13:49;20.90;49.60
20005;DHT22;69160;45.498;-73.582;2023-04-15T01:16:16;20.90;48.70
20005;DHT22;69160;45.498;-73.582;2023-04-15T01:18:42;20.80;48.60
20005;DHT22;69160;45.498;-73.582;2023-04-15T01:21:09;20.90;49.20
20005;DHT22;69160;45.498;-73.582;2023-04-15T01:23:36;20.90;49.00
20005;DHT22;69160;45.498;-73.582;2023-04-15T01:26:06;20.90;49.00
20005;DHT22;69160;45.498;-73.582;2023-04-15T01:28:34;21.00;49.30
20005;DHT22;69160;45.498;-73.582;2023-04-15T01:31:06;21.00;49.40
20005;DHT22;69160;45.498;-73.582;2023-04-15T01:33:32;20.90;49.20
20005;DHT22;69160;45.498;-73.582;2023-04-15T01:35:59;20.90;49.10
20005;DHT22;69160;45.498;-73.582;2023-04-15T01:38:26;20.80;48.90
20005;DHT22;69160;45.498;-73.582;2023-04-15T01:40:52;20.80;49.20
20005;DHT22;69160;45.498;-73.582;2023-04-15T01:43:19;20.90;49.30
20005;DHT22;69160;45.498;-73.582;2023-04-15T01:45:45;21.00;50.00
20005;DHT22;69160;45.498;-73.582;2023-04-15T01:48:11;21.20;50.20
20005;DHT22;69160;45.498;-73.582;2023-04-15T01:50:37;21.30;50.50
20005;DHT22;69160;45.498;-73.582;2023-04-15T01:53:04;21.40;50.60
20005;DHT22;69160;45.498;-73.582;2023-04-15T01:55:30;21.40;51.40
20005;DHT22;69160;45.498;-73.582;2023-04-15T01:57:57;21.50;51.00
20005;DHT22;69160;45.498;-73.582;2023-04-15T02:00:23;21.50;51.10
20005;DHT22;69160;45.498;-73.582;2023-04-15T02:02:49;21.50;51.20
20005;DHT22;69160;45.498;-73.582;2023-04-15T02:05:15;21.60;51.30
20005;DHT22;69160;45.498;-73.582;2023-04-15T02:07:42;21.50;51.80
20005;DHT22;69160;45.498;-73.582;2023-04-15T02:10:09;21.60;51.40
20005;DHT22;69160;45.498;-73.582;2023-04-15T02:12:35;21.70;51.50
20005;DHT22;69160;45.498;-73.582;2023-04-15T02:15:01;21.70;51.50
20005;DHT22;69160;45.498;-73.582;2023-04-15T02:17:28;21.70;51.50
20005;DHT22;69160;45.498;-73.582;2023-04-15T02:19:55;21.70;51.60
20005;DHT22;69160;45.498;-73.582;2023-04-15T02:22:21;21.70;51.50
20005;DHT22;69160;45.498;-73.582;2023-04-15T02:24:47;21.70;51.40
20005;DHT22;69160;45.498;-73.582;2023-04-15T02:27:17;21.70;51.60
20005;DHT22;69160;45.498;-73.582;2023-04-15T02:29:44;21.70;51.50
20005;DHT22;69160;45.498;-73.582;2023-04-15T02:32:11;21.70;51.70
20005;DHT22;69160;45.498;-73.582;2023-04-15T02:34:39;21.70;51.50
20005;DHT22;69160;45.498;-73.582;2023-04-15T02:37:09;21.80;51.60
20005;DHT22;69160;45.498;-73.582;2023-04-15T02:39:36;21.70;51.50
20005;DHT22;69160;45.498;-73.582;2023-04-15T02:42:03;21.80;51.60
20005;DHT22;69160;45.498;-73.582;2023-04-15T02:44:31;21.80;51.60
20005;DHT22;69160;45.498;-73.582;2023-04-15T02:46:58;21.80;51.70
20005;DHT22;69160;45.498;-73.582;2023-04-15T02:49:24;21.80;51.50
20005;DHT22;69160;45.498;-73.582;2023-04-15T02:51:51;21.80;51.50
20005;DHT22;69160;45.498;-73.582;2023-04-15T02:54:21;21.80;51.40
20005;DHT22;69160;45.498;-73.582;2023-04-15T02:56:48;21.80;51.40
20005;DHT22;69160;45.498;-73.582;2023-04-15T02:59:15;21.80;51.50
20005;DHT22;69160;45.498;-73.582;2023-04-15T03:01:41;21.80;51.40
20005;DHT22;69160;45.498;-73.582;2023-04-15T03:04:08;21.80;51.30
20005;DHT22;69160;45.498;-73.582;2023-04-15T03:06:34;21.80;51.30
20005;DHT22;69160;45.498;-73.582;2023-04-15T03:09:01;21.80;51.30
20005;DHT22;69160;45.498;-73.582;2023-04-15T03:11:28;21.80;51.40
20005;DHT22;69160;45.498;-73.582;2023-04-15T03:13:55;21.80;51.30
20005;DHT22;69160;45.498;-73.582;2023-04-15T03:16:21;21.80;51.20
20005;DHT22;69160;45.498;-73.582;2023-04-15T03:18:47;21.80;51.40
20005;DHT22;69160;45.498;-73.582;2023-04-15T03:21:13;21.80;51.50
20005;DHT22;69160;45.498;-73.582;2023-04-15T03:23:39;21.80;51.20
20005;DHT22;69160;45.498;-73.582;2023-04-15T03:26:06;21.80;51.20
20005;DHT22;69160;45.498;-73.582;2023-04-15T03:28:32;21.80;51.20
20005;DHT22;69160;45.498;-73.582;2023-04-15T03:30:59;21.80;51.30
20005;DHT22;69160;45.498;-73.582;2023-04-15T03:33:25;21.80;51.20
20005;DHT22;69160;45.498;-73.582;2023-04-15T03:35:52;21.80;51.30
20005;DHT22;69160;45.498;-73.582;2023-04-15T03:38:18;21.80;51.40
20005;DHT22;69160;45.498;-73.582;2023-04-15T03:40:46;21.90;52.20
20005;DHT22;69160;45.498;-73.582;2023-04-15T03:43:12;21.90;51.50
20005;DHT22;69160;45.498;-73.582;2023-04-15T03:45:38;21.90;51.40
20005;DHT22;69160;45.498;-73.582;2023-04-15T03:48:05;21.80;51.20
20005;DHT22;69160;45.498;-73.582;2023-04-15T03:50:31;21.80;51.30
20005;DHT22;69160;45.498;-73.582;2023-04-15T03:52:57;21.80;51.30
20005;DHT22;69160;45.498;-73.582;2023-04-15T03:55:23;21.80;51.30
20005;DHT22;69160;45.498;-73.582;2023-04-15T03:57:50;21.80;51.30
20005;DHT22;69160;45.498;-73.582;2023-04-15T04:00:16;21.80;51.30
20005;DHT22;69160;45.498;-73.582;2023-04-15T04:02:42;21.90;51.40
20005;DHT22;69160;45.498;-73.582;2023-04-15T04:05:09;21.90;51.50
20005;DHT22;69160;45.498;-73.582;2023-04-15T04:07:35;21.90;51.50
20005;DHT22;69160;45.498;-73.582;2023-04-15T04:10:01;21.90;51.60
20005;DHT22;69160;45.498;-73.582;2023-04-15T04:12:28;21.90;51.50
20005;DHT22;69160;45.498;-73.582;2023-04-15T04:14:54;21.90;51.30
20005;DHT22;69160;45.498;-73.582;2023-04-15T04:17:21;21.90;51.40
20005;DHT22;69160;45.498;-73.582;2023-04-15T04:19:47;21.90;51.40
20005;DHT22;69160;45.498;-73.582;2023-04-15T04:22:13;21.80;51.30
20005;DHT22;69160;45.498;-73.582;2023-04-15T04:24:39;21.80;51.30
20005;DHT22;69160;45.498;-73.582;2023-04-15T04:27:05;21.90;51.60
20005;DHT22;69160;45.498;-73.582;2023-04-15T04:29:32;21.90;51.40
20005;DHT22;69160;45.498;-73.582;2023-04-15T04:31:58;21.90;51.50
20005;DHT22;69160;45.498;-73.582;2023-04-15T04:34:24;21.90;51.60
20005;DHT22;69160;45.498;-73.582;2023-04-15T04:36:50;21.90;51.50
20005;DHT22;69160;45.498;-73.582;2023-04-15T04:39:16;21.90;51.50
20005;DHT22;69160;45.498;-73.582;2023-04-15T04:41:43;21.90;51.50
20005;DHT22;69160;45.498;-73.582;2023-04-15T04:44:10;21.90;51.50
20005;DHT22;69160;45.498;-73.582;2023-04-15T04:46:36;21.90;51.50
20005;DHT22;69160;45.498;-73.582;2023-04-15T04:49:02;21.90;51.60
20005;DHT22;69160;45.498;-73.582;2023-04-15T04:51:28;21.90;51.50
20005;DHT22;69160;45.498;-73.582;2023-04-15T04:53:54;21.90;51.50
20005;DHT22;69160;45.498;-73.582;2023-04-15T04:56:22;21.90;51.50
20005;DHT22;69160;45.498;-73.582;2023-04-15T04:58:48;21.90;51.50
20005;DHT22;69160;45.498;-73.582;2023-04-15T05:01:14;21.90;51.50
20005;DHT22;69160;45.498;-73.582;2023-04-15T05:03:40;21.90;51.60
20005;DHT22;69160;45.498;-73.582;2023-04-15T05:06:06;21.90;51.50
20005;DHT22;69160;45.498;-73.582;2023-04-15T05:08:33;21.90;51.70
20005;DHT22;69160;45.498;-73.582;2023-04-15T05:10:59;21.90;51.70
20005;DHT22;69160;45.498;-73.582;2023-04-15T05:13:26;21.80;51.60
20005;DHT22;69160;45.498;-73.582;2023-04-15T05:15:52;21.80;51.50
20005;DHT22;69160;45.498;-73.582;2023-04-15T05:18:18;21.80;51.50
20005;DHT22;69160;45.498;-73.582;2023-04-15T05:20:45;21.80;51.50
20005;DHT22;69160;45.498;-73.582;2023-04-15T05:23:11;21.80;51.60
20005;DHT22;69160;45.498;-73.582;2023-04-15T05:25:37;21.80;51.40
20005;DHT22;69160;45.498;-73.582;2023-04-15T05:28:04;21.80;51.50
20005;DHT22;69160;45.498;-73.582;2023-04-15T05:30:30;21.80;51.60
20005;DHT22;69160;45.498;-73.582;2023-04-15T05:32:56;21.90;51.60
20005;DHT22;69160;45.498;-73.582;2023-04-15T05:35:23;21.80;51.60
20005;DHT22;69160;45.498;-73.582;2023-04-15T05:37:49;21.90;51.50
20005;DHT22;69160;45.498;-73.582;2023-04-15T05:40:15;21.80;51.50
20005;DHT22;69160;45.498;-73.582;2023-04-15T05:42:42;21.80;51.40
20005;DHT22;69160;45.498;-73.582;2023-04-15T05:45:08;21.80;51.50
20005;DHT22;69160;45.498;-73.582;2023-04-15T05:47:35;21.80;51.40
20005;DHT22;69160;45.498;-73.582;2023-04-15T05:50:02;21.80;51.30
20005;DHT22;69160;45.498;-73.582;2023-04-15T05:52:30;21.80;51.50
20005;DHT22;69160;45.498;-73.582;2023-04-15T05:54:56;21.80;51.50
20005;DHT22;69160;45.498;-73.582;2023-04-15T05:57:22;21.80;51.80
20005;DHT22;69160;45.498;-73.582;2023-04-15T05:59:48;21.80;51.50
20005;DHT22;69160;45.498;-73.582;2023-04-15T06:02:17;21.80;51.40
20005;DHT22;69160;45.498;-73.582;2023-04-15T06:04:44;21.80;51.40
20005;DHT22;69160;45.498;-73.582;2023-04-15T06:07:10;21.80;51.40
20005;DHT22;69160;45.498;-73.582;2023-04-15T06:09:36;21.80;51.40
20005;DHT22;69160;45.498;-73.582;2023-04-15T06:12:02;21.80;51.50
20005;DHT22;69160;45.498;-73.582;2023-04-15T06:14:29;21.80;51.50
20005;DHT22;69160;45.498;-73.582;2023-04-15T06:16:55;21.80;51.30
20005;DHT22;69160;45.498;-73.582;2023-04-15T06:19:21;21.80;51.20
20005;DHT22;69160;45.498;-73.582;2023-04-15T06:21:48;21.80;51.30
20005;DHT22;69160;45.498;-73.582;2023-04-15T06:24:14;21.80;51.30
20005;DHT22;69160;45.498;-73.582;2023-04-15T06:26:40;21.80;51.30
20005;DHT22;69160;45.498;-73.582;2023-04-15T06:29:06;21.80;51.30
20005;DHT22;69160;45.498;-73.582;2023-04-15T06:31:33;21.70;51.10
20005;DHT22;69160;45.498;-73.582;2023-04-15T06:33:59;21.80;51.30
20005;DHT22;69160;45.498;-73.582;2023-04-15T06:36:25;21.80;51.50
20005;DHT22;69160;45.498;-73.582;2023-04-15T06:38:52;21.80;51.40
20005;DHT22;69160;45.498;-73.582;2023-04-15T06:41:18;21.80;51.40
20005;DHT22;69160;45.498;-73.582;2023-04-15T06:43:45;21.80;51.50
20005;DHT22;69160;45.498;-73.582;2023-04-15T06:46:11;21.80;51.30
20005;DHT22;69160;45.498;-73.582;2023-04-15T06:48:37;21.80;51.10
20005;DHT22;69160;45.498;-73.582;2023-04-15T06:51:03;21.80;51.20
20005;DHT22;69160;45.498;-73.582;2023-04-15T06:53:29;21.80;51.10
20005;DHT22;69160;45.498;-73.582;2023-04-15T06:55:55;21.80;51.30
20005;DHT22;69160;45.498;-73.582;2023-04-15T06:58:22;21.70;51.00
20005;DHT22;69160;45.498;-73.582;2023-04-15T07:00:48;21.80;51.00
20005;DHT22;69160;45.498;-73.582;2023-04-15T07:03:14;21.70;51.00
20005;DHT22;69160;45.498;-73.582;2023-04-15T07:05:40;21.70;51.00
20005;DHT22;69160;45.498;-73.582;2023-04-15T07:08:07;21.70;51.10
20005;DHT22;69160;45.498;-73.582;2023-04-15T07:10:34;21.80;51.00
20005;DHT22;69160;45.498;-73.582;2023-04-15T07:13:00;21.70;51.00
20005;DHT22;69160;45.498;-73.582;2023-04-15T07:15:26;21.70;51.00
20005;DHT22;69160;45.498;-73.582;2023-04-15T07:17:52;21.70;50.90
20005;DHT22;69160;45.498;-73.582;2023-04-15T07:20:19;21.70;50.90
20005;DHT22;69160;45.498;-73.582;2023-04-15T07:22:45;21.70;50.90
20005;DHT22;69160;45.498;-73.582;2023-04-15T07:25:11;21.70;51.00
20005;DHT22;69160;45.498;-73.582;2023-04-15T07:27:37;21.70;51.00
20005;DHT22;69160;45.498;-73.582;2023-04-15T07:30:05;21.70;51.00
20005;DHT22;69160;45.498;-73.582;2023-04-15T07:32:31;21.60;50.60
20005;DHT22;69160;45.498;-73.582;2023-04-15T07:34:57;21.70;51.10
20005;DHT22;69160;45.498;-73.582;2023-04-15T07:37:24;21.70;50.90
20005;DHT22;69160;45.498;-73.582;2023-04-15T07:39:50;21.70;51.00
20005;DHT22;69160;45.498;-73.582;2023-04-15T07:42:17;21.70;51.10
20005;DHT22;69160;45.498;-73.582;2023-04-15T07:44:43;21.70;51.00
20005;DHT22;69160;45.498;-73.582;2023-04-15T07:47:09;21.70;51.60
20005;DHT22;69160;45.498;-73.582;2023-04-15T07:49:36;21.70;51.00
20005;DHT22;69160;45.498;-73.582;2023-04-15T07:52:03;21.70;51.00
20005;DHT22;69160;45.498;-73.582;2023-04-15T07:54:29;21.70;51.10
20005;DHT22;69160;45.498;-73.582;2023-04-15T07:56:55;21.70;51.10
20005;DHT22;69160;45.498;-73.582;2023-04-15T07:59:22;21.60;51.00
20005;DHT22;69160;45.498;-73.582;2023-04-15T08:01:48;21.70;51.10
20005;DHT22;69160;45.498;-73.582;2023-04-15T08:04:14;21.70;51.10
20005;DHT22;69160;45.498;-73.582;2023-04-15T08:06:41;21.70;51.50
20005;DHT22;69160;45.498;-73.582;2023-04-15T08:09:07;21.60;51.00
20005;DHT22;69160;45.498;-73.582;2023-04-15T08:11:33;21.70;51.10
20005;DHT22;69160;45.498;-73.582;2023-04-15T08:13:59;21.60;50.90
20005;DHT22;69160;45.498;-73.582;2023-04-15T08:16:26;21.60;51.00
20005;DHT22;69160;45.498;-73.582;2023-04-15T08:18:55;21.60;51.00
20005;DHT22;69160;45.498;-73.582;2023-04-15T08:21:22;21.60;51.00
20005;DHT22;69160;45.498;-73.582;2023-04-15T08:23:50;21.60;51.00
20005;DHT22;69160;45.498;-73.582;2023-04-15T08:26:17;21.60;50.90
20005;DHT22;69160;45.498;-73.582;2023-04-15T08:28:45;21.60;50.80
20005;DHT22;69160;45.498;-73.582;2023-04-15T08:31:13;21.60;50.90
20005;DHT22;69160;45.498;-73.582;2023-04-15T08:33:39;21.60;51.00
20005;DHT22;69160;45.498;-73.582;2023-04-15T08:36:06;21.60;51.00
20005;DHT22;69160;45.498;-73.582;2023-04-15T08:38:32;21.60;50.80
20005;DHT22;69160;45.498;-73.582;2023-04-15T08:41:02;21.60;51.00
20005;DHT22;69160;45.498;-73.582;2023-04-15T08:43:33;21.60;50.80
20005;DHT22;69160;45.498;-73.582;2023-04-15T08:46:00;21.50;50.70
20005;DHT22;69160;45.498;-73.582;2023-04-15T08:48:28;21.60;50.90
20005;DHT22;69160;45.498;-73.582;2023-04-15T08:50:54;21.60;50.90
20005;DHT22;69160;45.498;-73.582;2023-04-15T08:53:21;21.60;50.90
20005;DHT22;69160;45.498;-73.582;2023-04-15T08:55:51;21.60;50.90
20005;DHT22;69160;45.498;-73.582;2023-04-15T08:58:18;21.60;50.80
20005;DHT22;69160;45.498;-73.582;2023-04-15T09:00:44;21.60;51.00
20005;DHT22;69160;45.498;-73.582;2023-04-15T09:03:11;21.60;50.80
20005;DHT22;69160;45.498;-73.582;2023-04-15T09:05:37;21.50;50.70
20005;DHT22;69160;45.498;-73.582;2023-04-15T09:08:04;21.60;50.80
20005;DHT22;69160;45.498;-73.582;2023-04-15T09:10:31;21.50;50.90
20005;DHT22;69160;45.498;-73.582;2023-04-15T09:12:58;21.50;50.90
20005;DHT22;69160;45.498;-73.582;2023-04-15T09:15:24;21.50;50.80
20005;DHT22;69160;45.498;-73.582;2023-04-15T09:17:55;21.50;50.80
20005;DHT22;69160;45.498;-73.582;2023-04-15T09:20:21;21.50;50.80
20005;DHT22;69160;45.498;-73.582;2023-04-15T09:22:49;21.50;50.80
20005;DHT22;69160;45.498;-73.582;2023-04-15T09:28:01;21.50;50.90
20005;DHT22;69160;45.498;-73.582;2023-04-15T09:30:28;21.50;50.80
20005;DHT22;69160;45.498;-73.582;2023-04-15T09:32:59;21.50;50.80
20005;DHT22;69160;45.498;-73.582;2023-04-15T09:35:27;21.50;50.90
20005;DHT22;69160;45.498;-73.582;2023-04-15T09:38:02;21.50;50.80
20005;DHT22;69160;45.498;-73.582;2023-04-15T09:40:39;21.50;50.80
20005;DHT22;69160;45.498;-73.582;2023-04-15T09:43:08;21.50;50.80
20005;DHT22;69160;45.498;-73.582;2023-04-15T09:45:35;21.50;51.30
20005;DHT22;69160;45.498;-73.582;2023-04-15T09:48:17;21.50;51.00
20005;DHT22;69160;45.498;-73.582;2023-04-15T09:50:43;21.50;50.90
20005;DHT22;69160;45.498;-73.582;2023-04-15T09:53:10;21.40;50.70
20005;DHT22;69160;45.498;-73.582;2023-04-15T09:55:37;21.40;50.80
20005;DHT22;69160;45.498;-73.582;2023-04-15T09:58:08;21.40;50.70
20005;DHT22;69160;45.498;-73.582;2023-04-15T10:00:35;21.40;50.80
20005;DHT22;69160;45.498;-73.582;2023-04-15T10:03:04;21.40;50.80
20005;DHT22;69160;45.498;-73.582;2023-04-15T10:05:31;21.40;50.90
20005;DHT22;69160;45.498;-73.582;2023-04-15T10:07:58;21.40;50.90
20005;DHT22;69160;45.498;-73.582;2023-04-15T10:10:24;21.40;50.60
20005;DHT22;69160;45.498;-73.582;2023-04-15T10:12:51;21.40;50.90
20005;DHT22;69160;45.498;-73.582;2023-04-15T10:15:20;21.40;50.80
20005;DHT22;69160;45.498;-73.582;2023-04-15T10:17:47;21.40;50.80
20005;DHT22;69160;45.498;-73.582;2023-04-15T10:20:16;21.40;50.80
20005;DHT22;69160;45.498;-73.582;2023-04-15T10:22:44;21.40;50.70
20005;DHT22;69160;45.498;-73.582;2023-04-15T10:25:12;21.40;50.60
20005;DHT22;69160;45.498;-73.582;2023-04-15T10:27:40;21.40;50.70
20005;DHT22;69160;45.498;-73.582;2023-04-15T10:30:07;21.40;50.80
20005;DHT22;69160;45.498;-73.582;2023-04-15T10:32:34;21.40;50.80
20005;DHT22;69160;45.498;-73.582;2023-04-15T10:35:01;21.40;50.90
20005;DHT22;69160;45.498;-73.582;2023-04-15T10:37:36;21.40;50.90
20005;DHT22;69160;45.498;-73.582;2023-04-15T10:43:00;21.40;50.70
20005;DHT22;69160;45.498;-73.582;2023-04-15T10:45:31;21.30;50.60
20005;DHT22;69160;45.498;-73.582;2023-04-15T10:48:01;21.30;50.70
20005;DHT22;69160;45.498;-73.582;2023-04-15T10:50:29;21.30;50.70
20005;DHT22;69160;45.498;-73.582;2023-04-15T10:52:56;21.30;50.90
20005;DHT22;69160;45.498;-73.582;2023-04-15T10:55:25;21.30;50.70
20005;DHT22;69160;45.498;-73.582;2023-04-15T10:57:58;21.30;51.90
20005;DHT22;69160;45.498;-73.582;2023-04-15T11:00:29;21.30;51.00
20005;DHT22;69160;45.498;-73.582;2023-04-15T11:03:06;21.30;50.80
20005;DHT22;69160;45.498;-73.582;2023-04-15T11:05:49;21.30;50.70
20005;DHT22;69160;45.498;-73.582;2023-04-15T11:08:15;21.30;50.70
20005;DHT22;69160;45.498;-73.582;2023-04-15T11:15:40;21.30;50.70
20005;DHT22;69160;45.498;-73.582;2023-04-15T11:20:43;21.30;50.70
20005;DHT22;69160;45.498;-73.582;2023-04-15T11:23:10;21.30;50.80
20005;DHT22;69160;45.498;-73.582;2023-04-15T11:25:37;21.30;51.10
20005;DHT22;69160;45.498;-73.582;2023-04-15T11:28:03;21.30;50.80
20005;DHT22;69160;45.498;-73.582;2023-04-15T11:30:32;21.30;50.80
20005;DHT22;69160;45.498;-73.582;2023-04-15T11:33:01;21.30;51.10
20005;DHT22;69160;45.498;-73.582;2023-04-15T11:35:28;21.30;51.60
20005;DHT22;69160;45.498;-73.582;2023-04-15T11:37:55;21.30;51.50
20005;DHT22;69160;45.498;-73.582;2023-04-15T11:40:27;21.30;51.70
20005;DHT22;69160;45.498;-73.582;2023-04-15T11:43:11;21.30;51.70
20005;DHT22;69160;45.498;-73.582;2023-04-15T11:45:59;21.30;51.70
20005;DHT22;69160;45.498;-73.582;2023-04-15T11:48:33;21.30;51.50
20005;DHT22;69160;45.498;-73.582;2023-04-15T11:51:05;21.30;51.90
20005;DHT22;69160;45.498;-73.582;2023-04-15T11:53:46;21.30;51.90
20005;DHT22;69160;45.498;-73.582;2023-04-15T11:58:43;21.30;52.40
20005;DHT22;69160;45.498;-73.582;2023-04-15T12:01:11;21.30;52.10
20005;DHT22;69160;45.498;-73.582;2023-04-15T12:03:42;21.30;52.80
20005;DHT22;69160;45.498;-73.582;2023-04-15T12:06:20;21.30;52.20
20005;DHT22;69160;45.498;-73.582;2023-04-15T12:13:56;21.30;52.00
20005;DHT22;69160;45.498;-73.582;2023-04-15T12:16:24;21.30;52.90
20005;DHT22;69160;45.498;-73.582;2023-04-15T12:18:51;21.40;52.90
20005;DHT22;69160;45.498;-73.582;2023-04-15T12:21:22;21.40;54.00
20005;DHT22;69160;45.498;-73.582;2023-04-15T12:26:16;21.50;53.90
20005;DHT22;69160;45.498;-73.582;2023-04-15T12:28:42;21.50;53.90
20005;DHT22;69160;45.498;-73.582;2023-04-15T12:31:10;21.50;53.90
20005;DHT22;69160;45.498;-73.582;2023-04-15T12:33:36;21.50;54.00
20005;DHT22;69160;45.498;-73.582;2023-04-15T12:36:03;21.50;54.20
20005;DHT22;69160;45.498;-73.582;2023-04-15T12:38:29;21.60;54.60
20005;DHT22;69160;45.498;-73.582;2023-04-15T12:40:57;21.60;54.00
20005;DHT22;69160;45.498;-73.582;2023-04-15T12:43:24;21.50;53.30
20005;DHT22;69160;45.498;-73.582;2023-04-15T12:45:50;21.60;53.10
20005;DHT22;69160;45.498;-73.582;2023-04-15T12:48:17;21.60;52.90
20005;DHT22;69160;45.498;-73.582;2023-04-15T12:50:43;21.60;52.80
20005;DHT22;69160;45.498;-73.582;2023-04-15T12:53:09;21.60;52.80
20005;DHT22;69160;45.498;-73.582;2023-04-15T12:55:35;21.60;52.60
20005;DHT22;69160;45.498;-73.582;2023-04-15T12:58:01;21.60;52.70
20005;DHT22;69160;45.498;-73.582;2023-04-15T13:00:28;21.60;52.70
20005;DHT22;69160;45.498;-73.582;2023-04-15T13:02:54;21.60;52.60
20005;DHT22;69160;45.498;-73.582;2023-04-15T13:05:20;21.50;52.50
20005;DHT22;69160;45.498;-73.582;2023-04-15T13:07:47;21.60;52.50
20005;DHT22;69160;45.498;-73.582;2023-04-15T13:10:13;21.50;53.00
20005;DHT22;69160;45.498;-73.582;2023-04-15T13:12:39;21.50;52.70
20005;DHT22;69160;45.498;-73.582;2023-04-15T13:15:06;21.60;52.50
20005;DHT22;69160;45.498;-73.582;2023-04-15T13:17:35;21.60;52.40
20005;DHT22;69160;45.498;-73.582;2023-04-15T13:20:01;21.60;52.20
20005;DHT22;69160;45.498;-73.582;2023-04-15T13:22:27;21.60;52.30
20005;DHT22;69160;45.498;-73.582;2023-04-15T13:24:53;21.50;52.10
20005;DHT22;69160;45.498;-73.582;2023-04-15T13:27:20;21.60;52.00
20005;DHT22;69160;45.498;-73.582;2023-04-15T13:29:46;21.60;52.10
20005;DHT22;69160;45.498;-73.582;2023-04-15T13:32:12;21.60;51.80
20005;DHT22;69160;45.498;-73.582;2023-04-15T13:34:38;21.60;51.80
20005;DHT22;69160;45.498;-73.582;2023-04-15T13:37:08;21.60;51.80
20005;DHT22;69160;45.498;-73.582;2023-04-15T13:39:34;21.60;51.70
20005;DHT22;69160;45.498;-73.582;2023-04-15T13:42:00;21.50;52.10
20005;DHT22;69160;45.498;-73.582;2023-04-15T13:44:27;21.50;52.30
20005;DHT22;69160;45.498;-73.582;2023-04-15T13:46:54;21.60;52.10
20005;DHT22;69160;45.498;-73.582;2023-04-15T13:49:20;21.60;52.20
20005;DHT22;69160;45.498;-73.582;2023-04-15T13:51:46;21.60;52.10
20005;DHT22;69160;45.498;-73.582;2023-04-15T13:54:12;21.60;52.40
20005;DHT22;69160;45.498;-73.582;2023-04-15T13:56:39;21.60;52.50
20005;DHT22;69160;45.498;-73.582;2023-04-15T13:59:05;21.60;52.20
20005;DHT22;69160;45.498;-73.582;2023-04-15T14:01:34;21.60;52.20
20005;DHT22;69160;45.498;-73.582;2023-04-15T14:04:00;21.60;52.10
20005;DHT22;69160;45.498;-73.582;2023-04-15T14:06:27;21.60;51.90
20005;DHT22;69160;45.498;-73.582;2023-04-15T14:08:54;21.70;52.40
20005;DHT22;69160;45.498;-73.582;2023-04-15T14:11:20;21.70;52.50
20005;DHT22;69160;45.498;-73.582;2023-04-15T14:13:46;21.60;52.70
20005;DHT22;69160;45.498;-73.582;2023-04-15T14:16:13;21.70;52.40
20005;DHT22;69160;45.498;-73.582;2023-04-15T14:18:39;21.70;52.80
20005;DHT22;69160;45.498;-73.582;2023-04-15T14:21:05;21.70;52.60
20005;DHT22;69160;45.498;-73.582;2023-04-15T14:23:31;21.70;53.30
20005;DHT22;69160;45.498;-73.582;2023-04-15T14:25:58;21.70;53.20
20005;DHT22;69160;45.498;-73.582;2023-04-15T14:28:24;21.70;52.80
20005;DHT22;69160;45.498;-73.582;2023-04-15T14:30:50;21.70;52.70
20005;DHT22;69160;45.498;-73.582;2023-04-15T14:33:16;21.70;52.60
20005;DHT22;69160;45.498;-73.582;2023-04-15T14:35:42;21.70;52.50
20005;DHT22;69160;45.498;-73.582;2023-04-15T14:38:09;21.60;52.50
20005;DHT22;69160;45.498;-73.582;2023-04-15T14:40:36;21.70;52.50
20005;DHT22;69160;45.498;-73.582;2023-04-15T14:43:02;21.70;52.50
20005;DHT22;69160;45.498;-73.582;2023-04-15T14:45:29;21.70;52.70
20005;DHT22;69160;45.498;-73.582;2023-04-15T14:47:55;21.80;52.90
20005;DHT22;69160;45.498;-73.582;2023-04-15T14:50:22;21.80;52.70
20005;DHT22;69160;45.498;-73.582;2023-04-15T14:52:48;21.80;52.60
20005;DHT22;69160;45.498;-73.582;2023-04-15T14:55:14;21.80;52.60
20005;DHT22;69160;45.498;-73.582;2023-04-15T14:57:41;21.80;53.10
20005;DHT22;69160;45.498;-73.582;2023-04-15T15:00:09;21.90;52.80
20005;DHT22;69160;45.498;-73.582;2023-04-15T15:02:38;21.90;52.80
20005;DHT22;69160;45.498;-73.582;2023-04-15T15:05:04;21.90;52.80
20005;DHT22;69160;45.498;-73.582;2023-04-15T15:07:30;21.90;52.80
20005;DHT22;69160;45.498;-73.582;2023-04-15T15:09:57;21.90;52.90
20005;DHT22;69160;45.498;-73.582;2023-04-15T15:12:25;21.90;53.50
20005;DHT22;69160;45.498;-73.582;2023-04-15T15:14:53;21.90;52.90
20005;DHT22;69160;45.498;-73.582;2023-04-15T15:17:20;21.90;52.90
20005;DHT22;69160;45.498;-73.582;2023-04-15T15:19:46;21.90;53.00
20005;DHT22;69160;45.498;-73.582;2023-04-15T15:22:12;21.90;53.00
20005;DHT22;69160;45.498;-73.582;2023-04-15T15:24:38;21.90;53.00